Time;durP1;ratioP1;P1;durP2;ratioP2;P2;SDS_P1;SDS_P2;PMS_P1;PMS_P2;Temp;Humidity;BMP_temperature;BMP_pressure;BME280_temperature;BME280_humidity;BME280_pressure;Samples;Min_cycle;Max_cycle;Signal;HPM_P1;HPM_P2
2022/03/24 00:01:52;;;;;;;35.58;19.77;;;6.80;99.90;;;;;;5010295;28;20388;-52
2022/03/24 00:04:17;;;;;;;36.95;19.88;;;6.70;99.90;;;;;;5010409;28;20389;-52
2022/03/24 00:06:43;;;;;;;37.10;20.20;;;6.70;99.90;;;;;;5010365;28;20411;-51
2022/03/24 00:09:09;;;;;;;40.42;22.50;;;6.80;99.90;;;;;;5011159;28;20384;-52
2022/03/24 00:11:35;;;;;;;38.03;20.42;;;6.90;99.90;;;;;;5009787;28;20881;-52
2022/03/24 00:14:00;;;;;;;33.47;19.60;;;6.70;99.90;;;;;;5010734;28;20416;-51
2022/03/24 00:16:26;;;;;;;30.65;18.27;;;6.70;99.90;;;;;;5009940;28;20389;-51
2022/03/24 00:18:52;;;;;;;32.33;19.40;;;6.60;99.90;;;;;;5010453;28;20715;-51
2022/03/24 00:21:18;;;;;;;31.33;19.15;;;6.50;99.90;;;;;;5009961;28;20892;-50
2022/03/24 00:23:44;;;;;;;29.92;18.95;;;6.40;99.90;;;;;;5009386;28;20397;-51
2022/03/24 00:26:10;;;;;;;36.53;20.08;;;6.30;99.90;;;;;;5010133;28;20427;-52
2022/03/24 00:28:35;;;;;;;29.45;18.80;;;6.40;99.90;;;;;;5009955;28;20759;-51
2022/03/24 00:31:01;;;;;;;30.17;18.60;;;6.40;99.90;;;;;;5010172;28;20377;-51
2022/03/24 00:33:28;;;;;;;30.60;17.90;;;6.30;99.90;;;;;;5010094;28;20867;-50
2022/03/24 00:35:55;;;;;;;31.13;16.95;;;6.20;99.90;;;;;;5010311;28;20385;-51
2022/03/24 00:38:20;;;;;;;31.17;17.00;;;6.00;99.90;;;;;;5010011;28;20948;-51
2022/03/24 00:40:46;;;;;;;31.30;16.70;;;5.80;99.90;;;;;;5008751;28;20388;-51
2022/03/24 00:43:12;;;;;;;29.13;16.10;;;5.70;99.90;;;;;;5010606;28;20802;-51
2022/03/24 00:45:41;;;;;;;30.40;17.40;;;5.80;99.90;;;;;;5000186;28;20906;-50
2022/03/24 00:48:10;;;;;;;32.35;16.48;;;5.80;99.90;;;;;;4994261;28;20441;-51
2022/03/24 00:50:36;;;;;;;32.15;17.23;;;5.80;99.90;;;;;;4991438;28;20902;-50
2022/03/24 00:53:03;;;;;;;32.47;17.77;;;6.30;99.90;;;;;;5010246;28;20413;-51
2022/03/24 00:55:30;;;;;;;30.88;17.38;;;5.90;99.90;;;;;;5009422;28;20439;-50
2022/03/24 00:57:56;;;;;;;31.05;17.27;;;5.90;99.90;;;;;;5009330;28;20439;-51
2022/03/24 01:00:25;;;;;;;34.15;18.08;;;5.90;99.90;;;;;;5010057;28;20381;-51
2022/03/24 01:02:52;;;;;;;33.67;17.48;;;5.90;99.90;;;;;;5009063;28;20764;-51
2022/03/24 01:05:20;;;;;;;32.20;17.63;;;7.00;99.90;;;;;;5010146;28;20929;-51
2022/03/24 01:07:46;;;;;;;32.70;16.83;;;5.90;99.90;;;;;;5009363;28;20471;-51
2022/03/24 01:10:15;;;;;;;30.98;16.60;;;5.90;99.90;;;;;;5009748;28;20377;-51
2022/03/24 01:12:42;;;;;;;33.22;16.85;;;5.90;99.90;;;;;;5008889;28;20409;-51
2022/03/24 01:15:09;;;;;;;30.67;16.73;;;5.80;99.90;;;;;;5010182;28;20385;-51
2022/03/24 01:17:36;;;;;;;33.45;17.50;;;5.60;99.90;;;;;;5008960;28;20385;-53
2022/03/24 01:20:03;;;;;;;30.67;19.13;;;5.50;1.00;;;;;;5009597;28;20408;-53
2022/03/24 01:22:28;;;;;;;32.45;17.95;;;5.40;65.90;;;;;;5009020;28;20770;-52
2022/03/24 01:24:55;;;;;;;30.17;16.23;;;3.50;71.90;;;;;;5009607;28;20388;-53
2022/03/24 01:27:25;;;;;;;31.97;17.20;;;5.20;74.30;;;;;;5009718;28;20391;-53
2022/03/24 01:29:51;;;;;;;28.52;16.35;;;5.20;75.60;;;;;;5008971;28;20380;-53
2022/03/24 01:32:18;;;;;;;29.25;16.00;;;5.10;76.20;;;;;;5009875;28;20381;-53
2022/03/24 01:34:45;;;;;;;28.80;16.23;;;6.80;79.00;;;;;;5008992;28;20397;-53
2022/03/24 01:37:11;;;;;;;30.67;16.10;;;5.00;77.00;;;;;;5009615;28;20412;-53
2022/03/24 01:39:37;;;;;;;32.03;17.77;;;5.90;78.70;;;;;;5009104;28;20392;-54
2022/03/24 01:42:05;;;;;;;30.58;17.98;;;5.00;78.60;;;;;;5009461;28;20384;-53
2022/03/24 01:44:31;;;;;;;30.88;16.45;;;5.10;78.80;;;;;;5009216;28;20391;-52
2022/03/24 01:47:07;;;;;;;28.60;15.83;;;5.20;79.50;;;;;;5009454;28;20377;-54
2022/03/24 01:49:41;;;;;;;31.40;17.30;;;5.30;80.50;;;;;;5008631;28;20821;-51
2022/03/24 01:52:10;;;;;;;31.37;16.97;;;5.50;78.80;;;;;;5013208;28;20377;-51
2022/03/24 01:54:38;;;;;;;34.28;17.50;;;5.40;78.20;;;;;;4995198;28;20396;-53
2022/03/24 01:57:05;;;;;;;33.90;16.52;;;5.40;78.00;;;;;;5013048;28;20416;-51
2022/03/24 01:59:32;;;;;;;35.17;17.30;;;5.30;77.40;;;;;;5012589;28;20381;-52
2022/03/24 02:01:58;;;;;;;34.10;16.80;;;6.10;79.60;;;;;;5013224;28;20411;-53
2022/03/24 02:04:23;;;;;;;36.78;17.33;;;5.10;79.20;;;;;;5013055;28;20888;-53
2022/03/24 02:06:49;;;;;;;32.92;17.65;;;5.20;81.10;;;;;;5012041;28;20369;-53
2022/03/24 02:09:16;;;;;;;31.15;17.55;;;5.20;79.70;;;;;;5013168;28;20889;-53
2022/03/24 02:11:42;;;;;;;37.10;17.60;;;5.20;80.20;;;;;;5012058;28;20408;-53
2022/03/24 02:14:08;;;;;;;30.80;16.23;;;5.10;80.00;;;;;;4994780;28;20412;-53
2022/03/24 02:16:38;;;;;;;32.88;16.75;;;5.20;80.70;;;;;;5011761;28;20458;-52
2022/03/24 02:19:21;;;;;;;32.97;17.13;;;5.30;81.10;;;;;;5012376;28;20412;-53
2022/03/24 02:21:48;;;;;;;30.85;16.90;;;5.30;80.80;;;;;;5011917;28;20893;-53
2022/03/24 02:24:17;;;;;;;31.10;16.60;;;5.30;80.30;;;;;;5011987;28;20408;-53
2022/03/24 02:26:45;;;;;;;33.03;16.88;;;5.30;81.20;;;;;;5011652;28;20377;-53
2022/03/24 02:29:11;;;;;;;34.25;17.13;;;5.20;82.60;;;;;;5012262;28;20395;-53
2022/03/24 02:31:40;;;;;;;31.95;16.90;;;5.20;83.50;;;;;;5011396;28;20373;-53
2022/03/24 02:36:54;;;;;;;31.17;16.90;;;5.10;83.70;;;;;;5011843;28;20400;-54
2022/03/24 02:39:20;;;;;;;30.00;16.50;;;5.20;84.20;;;;;;5011860;28;21054;-54
2022/03/24 02:41:46;;;;;;;31.35;16.50;;;5.10;84.20;;;;;;5011580;28;20388;-53
2022/03/24 02:44:14;;;;;;;29.85;16.25;;;5.10;84.50;;;;;;5012363;28;20497;-53
2022/03/24 02:46:44;;;;;;;31.63;16.97;;;5.10;83.90;;;;;;5011220;28;20389;-52
2022/03/24 02:49:11;;;;;;;29.87;16.33;;;5.00;83.40;;;;;;5012030;28;20416;-53
2022/03/24 02:51:38;;;;;;;31.53;16.20;;;4.90;83.70;;;;;;5011810;28;20393;-53
2022/03/24 02:54:04;;;;;;;34.57;17.37;;;4.90;84.80;;;;;;4992312;28;20417;-53
2022/03/24 02:56:30;;;;;;;30.00;16.70;;;4.80;85.10;;;;;;4992218;28;20744;-52
2022/03/24 02:58:56;;;;;;;36.67;17.40;;;4.70;86.40;;;;;;4994973;28;20401;-53
2022/03/24 03:01:25;;;;;;;30.95;16.52;;;4.70;86.30;;;;;;4998170;28;20437;-53
2022/03/24 03:03:52;;;;;;;33.42;17.00;;;4.70;86.20;;;;;;4994747;28;20407;-53
2022/03/24 03:06:19;;;;;;;34.78;17.40;;;4.60;86.90;;;;;;5011988;28;20392;-53
2022/03/24 03:08:46;;;;;;;30.60;16.50;;;5.70;90.30;;;;;;5010918;28;20418;-53
2022/03/24 03:11:11;;;;;;;32.40;16.60;;;4.50;90.60;;;;;;5011750;28;20427;-53
2022/03/24 03:13:37;;;;;;;31.60;16.63;;;4.50;91.10;;;;;;5007891;28;20406;-54
2022/03/24 03:16:04;;;;;;;32.97;15.82;;;4.60;92.10;;;;;;4992014;28;20434;-53
2022/03/24 03:18:31;;;;;;;30.90;16.43;;;4.70;93.00;;;;;;4991703;28;20486;-53
2022/03/24 03:20:56;;;;;;;33.72;16.70;;;4.80;93.20;;;;;;4991398;28;20414;-53
2022/03/24 03:23:22;;;;;;;29.70;16.17;;;4.80;93.10;;;;;;4991816;28;20444;-53
2022/03/24 03:25:48;;;;;;;28.67;15.18;;;4.70;93.60;;;;;;5008472;28;20738;-53
2022/03/24 03:28:18;;;;;;;33.53;17.73;;;4.70;93.90;;;;;;5010971;28;20381;-53
2022/03/24 03:30:45;;;;;;;33.22;16.30;;;4.70;93.80;;;;;;5010785;28;20496;-53
2022/03/24 03:33:11;;;;;;;33.10;17.98;;;4.80;93.80;;;;;;5011451;28;20409;-53
2022/03/24 03:35:37;;;;;;;31.98;17.20;;;4.80;93.80;;;;;;5010731;28;20727;-53
2022/03/24 03:38:03;;;;;;;33.58;17.60;;;4.90;93.80;;;;;;5011094;28;20391;-53
2022/03/24 03:40:29;;;;;;;34.10;17.35;;;4.70;93.80;;;;;;5011113;28;20389;-53
2022/03/24 03:42:55;;;;;;;31.67;16.90;;;4.50;93.30;;;;;;5010154;28;20724;-53
2022/03/24 03:45:21;;;;;;;33.43;16.57;;;4.40;94.10;;;;;;5011072;28;20424;-53
2022/03/24 03:47:47;;;;;;;30.88;17.17;;;4.20;95.30;;;;;;5010283;28;20475;-53
2022/03/24 03:50:13;;;;;;;32.47;17.23;;;4.10;95.70;;;;;;5011115;28;20831;-53
2022/03/24 03:52:39;;;;;;;28.73;16.33;;;3.90;96.30;;;;;;5010342;28;20393;-53
2022/03/24 03:55:05;;;;;;;32.13;16.75;;;3.90;97.10;;;;;;5010736;28;20747;-53
2022/03/24 03:57:31;;;;;;;35.05;18.23;;;3.80;97.20;;;;;;5009458;28;20399;-52
2022/03/24 04:00:52;;;;;;;31.08;16.40;;;3.80;98.10;;;;;;5011161;28;20385;-53
2022/03/24 04:02:42;;;;;;;33.77;17.70;;;3.80;98.20;;;;;;5009865;28;20500;-53
2022/03/24 04:05:08;;;;;;;31.07;16.40;;;3.80;98.80;;;;;;5010578;28;20894;-53
2022/03/24 04:07:34;;;;;;;29.40;16.50;;;3.80;99.00;;;;;;5010081;28;20479;-53
2022/03/24 04:09:59;;;;;;;32.07;16.80;;;4.90;99.60;;;;;;5010575;28;20381;-53
2022/03/24 04:12:25;;;;;;;31.20;16.88;;;3.80;99.40;;;;;;5010547;28;20384;-53
2022/03/24 04:14:51;;;;;;;32.20;17.33;;;3.70;99.20;;;;;;5009630;28;20393;-53
2022/03/24 04:17:19;;;;;;;34.60;17.70;;;3.70;99.90;;;;;;5010641;28;20384;-53
2022/03/24 04:19:44;;;;;;;31.98;17.05;;;3.80;99.90;;;;;;5010034;28;20393;-53
2022/03/24 04:22:10;;;;;;;33.83;17.30;;;3.80;99.90;;;;;;5010219;28;20515;-53
2022/03/24 04:24:36;;;;;;;34.00;17.60;;;3.90;99.90;;;;;;5009981;28;20850;-52
2022/03/24 04:27:02;;;;;;;33.10;17.17;;;4.00;99.90;;;;;;5010674;28;20742;-53
2022/03/24 04:29:28;;;;;;;32.88;16.90;;;4.00;99.90;;;;;;5010458;28;20432;-53
2022/03/24 04:31:55;;;;;;;32.25;16.70;;;3.90;99.90;;;;;;5008543;28;20400;-53
2022/03/24 04:34:21;;;;;;;31.33;16.98;;;3.90;99.90;;;;;;5009871;28;20444;-53
2022/03/24 04:36:47;;;;;;;32.03;16.30;;;3.90;99.90;;;;;;5009258;28;20432;-53
2022/03/24 04:39:13;;;;;;;30.65;17.17;;;5.60;99.90;;;;;;5007627;28;20404;-52
2022/03/24 04:41:41;;;;;;;30.55;17.10;;;3.90;99.90;;;;;;5006685;28;20392;-54
2022/03/24 04:44:07;;;;;;;31.00;16.75;;;3.90;99.90;;;;;;5009464;28;20385;-53
2022/03/24 04:46:33;;;;;;;33.23;17.27;;;3.90;99.90;;;;;;5007845;28;20482;-52
2022/03/24 04:48:58;;;;;;;29.87;15.70;;;3.80;99.90;;;;;;5008910;28;20442;-53
2022/03/24 04:51:24;;;;;;;29.70;16.33;;;3.80;99.90;;;;;;5009891;28;20750;-53
2022/03/24 04:53:50;;;;;;;28.23;16.13;;;3.80;99.90;;;;;;5007489;28;20428;-53
2022/03/24 04:56:16;;;;;;;32.25;16.13;;;3.80;99.90;;;;;;5006382;28;20441;-53
2022/03/24 04:58:42;;;;;;;32.10;17.67;;;3.80;99.90;;;;;;5009006;28;20401;-53
2022/03/24 05:01:07;;;;;;;33.03;16.73;;;3.80;99.90;;;;;;5008026;28;20388;-52
2022/03/24 05:03:33;;;;;;;32.63;17.92;;;3.70;99.90;;;;;;5008958;28;20401;-52
2022/03/24 05:05:59;;;;;;;36.50;16.70;;;3.80;99.90;;;;;;5009392;28;20463;-53
2022/03/24 05:08:25;;;;;;;32.95;16.35;;;3.80;99.90;;;;;;5009745;28;20416;-53
2022/03/24 05:10:50;;;;;;;31.63;17.33;;;3.80;99.90;;;;;;4986404;28;20799;-53
2022/03/24 05:13:16;;;;;;;33.43;16.60;;;4.20;99.90;;;;;;5005357;28;20423;-54
2022/03/24 05:15:41;;;;;;;31.48;16.80;;;5.70;99.90;;;;;;5009414;28;20395;-53
2022/03/24 05:18:08;;;;;;;33.33;17.37;;;3.60;99.90;;;;;;5004836;28;20401;-52
2022/03/24 05:20:34;;;;;;;32.65;17.15;;;3.60;99.90;;;;;;5004314;28;20409;-52
2022/03/24 05:23:00;;;;;;;32.30;17.30;;;3.50;99.90;;;;;;5008272;28;20425;-53
2022/03/24 05:25:26;;;;;;;29.85;16.42;;;4.90;99.90;;;;;;4992690;28;20393;-53
2022/03/24 05:27:52;;;;;;;32.17;16.88;;;3.50;99.90;;;;;;5012502;28;20400;-53
2022/03/24 05:30:17;;;;;;;35.70;17.13;;;3.50;99.90;;;;;;5013816;28;20377;-53
2022/03/24 05:32:43;;;;;;;33.35;17.17;;;3.60;99.90;;;;;;5012407;28;20392;-53
2022/03/24 05:35:09;;;;;;;32.57;16.83;;;4.10;99.90;;;;;;5011367;28;20547;-53
2022/03/24 05:37:35;;;;;;;32.65;16.95;;;3.70;99.90;;;;;;5013132;28;20399;-52
2022/03/24 05:40:01;;;;;;;33.30;16.80;;;3.80;99.90;;;;;;5012530;28;20393;-52
2022/03/24 05:42:27;;;;;;;31.03;16.80;;;3.80;99.90;;;;;;4995700;28;20798;-53
2022/03/24 05:44:53;;;;;;;33.60;17.45;;;3.90;99.90;;;;;;5012538;28;20393;-54
2022/03/24 05:47:19;;;;;;;30.33;16.65;;;4.10;99.90;;;;;;5012862;28;20408;-52
2022/03/24 05:49:45;;;;;;;28.95;15.73;;;4.70;99.90;;;;;;5012165;28;20438;-51
2022/03/24 05:52:11;;;;;;;28.27;15.68;;;5.40;99.90;;;;;;5012961;28;20385;-53
2022/03/24 05:54:37;;;;;;;28.77;15.60;;;6.20;99.70;;;;;;5012382;28;20412;-51
2022/03/24 05:57:03;;;;;;;29.57;16.77;;;6.90;97.10;;;;;;5012681;28;20396;-51
2022/03/24 05:59:29;;;;;;;29.73;16.70;;;7.40;95.40;;;;;;5008652;28;20412;-54
2022/03/24 06:01:56;;;;;;;29.27;16.80;;;7.90;93.50;;;;;;5001119;28;20448;-54
2022/03/24 06:04:23;;;;;;;31.40;17.98;;;9.60;93.00;;;;;;5002683;28;20409;-54
2022/03/24 06:06:56;;;;;;;27.65;16.20;;;9.00;90.90;;;;;;5012056;28;20387;-51
2022/03/24 06:09:22;;;;;;;30.17;16.83;;;9.70;88.50;;;;;;5011058;28;20543;-51
2022/03/24 06:11:48;;;;;;;27.15;16.33;;;10.20;83.40;;;;;;5011296;28;20479;-51
2022/03/24 06:14:14;;;;;;;30.85;16.95;;;10.70;80.50;;;;;;5007017;28;20411;-51
2022/03/24 06:16:43;;;;;;;29.10;17.00;;;11.50;76.00;;;;;;5009065;28;20391;-51
2022/03/24 06:19:09;;;;;;;30.23;18.40;;;11.60;73.10;;;;;;5011616;28;20400;-51
2022/03/24 06:21:36;;;;;;;32.17;18.67;;;11.80;72.50;;;;;;5012056;28;20534;-52
2022/03/24 06:24:03;;;;;;;31.02;17.00;;;12.30;70.20;;;;;;5011563;28;20404;-52
2022/03/24 06:26:29;;;;;;;31.20;18.23;;;13.60;65.90;;;;;;5011467;28;20415;-53
2022/03/24 06:28:55;;;;;;;28.88;18.15;;;14.60;61.00;;;;;;5011064;28;20468;-52
2022/03/24 06:31:20;;;;;;;30.05;21.52;;;14.60;58.80;;;;;;5011204;28;20400;-52
2022/03/24 06:33:47;;;;;;;31.85;18.30;;;15.20;57.00;;;;;;5011279;28;20459;-52
2022/03/24 06:36:14;;;;;;;28.13;18.67;;;15.50;55.70;;;;;;5003867;28;20483;-52
2022/03/24 06:38:39;;;;;;;31.55;19.85;;;15.60;54.40;;;;;;5009903;28;20577;-52
2022/03/24 06:41:06;;;;;;;31.43;19.30;;;15.60;53.50;;;;;;5009218;28;20492;-52
2022/03/24 06:43:34;;;;;;;29.90;19.52;;;16.00;52.60;;;;;;5012081;28;20458;-53
2022/03/24 06:45:59;;;;;;;36.08;20.15;;;16.00;51.90;;;;;;5005590;28;20441;-52
2022/03/24 06:48:25;;;;;;;31.92;19.63;;;16.00;52.10;;;;;;5004189;28;20470;-52
2022/03/24 06:50:51;;;;;;;31.73;19.20;;;16.20;52.00;;;;;;4997721;28;20533;-52
2022/03/24 06:53:17;;;;;;;30.43;18.63;;;16.60;51.50;;;;;;5007766;28;20420;-52
2022/03/24 06:55:43;;;;;;;30.58;20.73;;;17.30;49.90;;;;;;5008698;28;20492;-52
2022/03/24 06:58:09;;;;;;;31.45;22.75;;;16.40;47.90;;;;;;5011005;28;20475;-52
2022/03/24 07:00:34;;;;;;;32.80;23.63;;;17.00;49.20;;;;;;5007009;28;20428;-52
2022/03/24 07:03:01;;;;;;;33.20;23.05;;;16.60;49.40;;;;;;5007782;28;20920;-52
2022/03/24 07:05:27;;;;;;;29.83;22.35;;;16.70;49.40;;;;;;5006276;28;20408;-52
2022/03/24 07:07:54;;;;;;;30.08;22.83;;;17.50;48.30;;;;;;5010959;28;20385;-53
2022/03/24 07:10:20;;;;;;;31.05;23.52;;;18.00;46.70;;;;;;5010300;28;20494;-53
2022/03/24 07:12:48;;;;;;;34.28;24.15;;;18.00;46.80;;;;;;5009148;28;20482;-52
2022/03/24 07:15:14;;;;;;;33.17;24.35;;;18.50;46.00;;;;;;5008888;28;20550;-53
2022/03/24 07:17:39;;;;;;;32.77;22.87;;;19.00;44.60;;;;;;5006724;28;20408;-53
2022/03/24 07:20:07;;;;;;;33.13;23.20;;;18.50;44.90;;;;;;5007204;28;20405;-52
2022/03/24 07:22:37;;;;;;;32.92;22.17;;;19.20;44.40;;;;;;5008916;28;20637;-53
2022/03/24 07:25:06;;;;;;;30.33;23.07;;;19.90;43.20;;;;;;5006993;28;20921;-53
2022/03/24 07:27:32;;;;;;;34.65;20.70;;;19.40;43.10;;;;;;5007173;28;20404;-53
2022/03/24 07:29:57;;;;;;;29.83;21.73;;;20.10;43.20;;;;;;5003097;28;20420;-53
2022/03/24 07:32:24;;;;;;;32.77;20.90;;;20.80;41.50;;;;;;5008949;28;20881;-53
2022/03/24 07:34:50;;;;;;;29.77;21.02;;;20.40;41.80;;;;;;5015127;28;20496;-53
2022/03/24 07:37:15;;;;;;;32.67;20.70;;;20.10;42.50;;;;;;5021658;28;20463;-53
2022/03/24 07:39:41;;;;;;;30.80;21.57;;;20.60;41.60;;;;;;5019443;28;20387;-53
2022/03/24 07:42:07;;;;;;;30.77;22.57;;;21.10;40.90;;;;;;5017317;28;20909;-54
2022/03/24 07:44:33;;;;;;;32.40;22.77;;;21.60;40.30;;;;;;5020164;28;20385;-53
2022/03/24 07:46:58;;;;;;;31.38;21.35;;;22.30;39.10;;;;;;5013368;28;20899;-53
2022/03/24 07:49:24;;;;;;;30.10;21.50;;;23.40;37.90;;;;;;5009836;28;20487;-53
2022/03/24 07:51:50;;;;;;;31.25;24.30;;;23.70;36.60;;;;;;5008586;28;20556;-54
2022/03/24 07:54:16;;;;;;;32.13;22.37;;;22.80;36.20;;;;;;5003412;28;20448;-53
2022/03/24 07:56:43;;;;;;;30.77;21.77;;;21.70;37.00;;;;;;5010414;28;20395;-53
2022/03/24 07:59:08;;;;;;;34.05;24.98;;;21.10;38.00;;;;;;4993724;28;20385;-53
2022/03/24 08:01:36;;;;;;;32.45;25.08;;;20.10;38.50;;;;;;5010504;28;20396;-53
2022/03/24 08:04:05;;;;;;;31.52;21.92;;;20.00;38.60;;;;;;5010609;28;20420;-53
2022/03/24 08:06:32;;;;;;;33.13;21.35;;;20.40;39.00;;;;;;5010710;28;20897;-54
2022/03/24 08:08:58;;;;;;;31.35;21.50;;;20.90;39.10;;;;;;5009582;28;20373;-54
2022/03/24 08:11:28;;;;;;;32.85;21.55;;;22.50;38.20;;;;;;5009469;28;20869;-53
2022/03/24 08:13:55;;;;;;;32.47;22.02;;;23.30;36.30;;;;;;5009657;28;20487;-53
2022/03/24 08:16:24;;;;;;;30.60;22.25;;;23.60;35.50;;;;;;5010094;28;20397;-53
2022/03/24 08:18:51;;;;;;;31.27;22.50;;;23.80;34.90;;;;;;5001450;28;20408;-53
2022/03/24 08:21:17;;;;;;;29.42;21.95;;;23.80;34.60;;;;;;5007234;28;20411;-55
2022/03/24 08:23:42;;;;;;;31.00;22.13;;;24.90;34.00;;;;;;5006303;28;20408;-53
2022/03/24 08:26:09;;;;;;;32.83;25.17;;;24.80;33.60;;;;;;5005504;28;20413;-53
2022/03/24 08:28:35;;;;;;;35.60;22.60;;;24.90;32.90;;;;;;5010412;28;20385;-53
2022/03/24 08:31:01;;;;;;;34.42;28.02;;;24.50;33.40;;;;;;5010120;28;20389;-53
2022/03/24 08:33:27;;;;;;;31.93;27.37;;;24.10;33.60;;;;;;5008052;28;20415;-54
2022/03/24 08:35:53;;;;;;;33.17;26.48;;;24.40;33.70;;;;;;5007636;28;20497;-54
2022/03/24 08:38:19;;;;;;;31.43;26.90;;;25.40;32.60;;;;;;4989946;28;20503;-54
2022/03/24 08:40:44;;;;;;;34.03;27.47;;;25.90;31.90;;;;;;5006730;28;20407;-54
2022/03/24 08:43:10;;;;;;;31.27;26.83;;;26.30;31.50;;;;;;5009134;28;20518;-54
2022/03/24 08:45:37;;;;;;;31.00;26.10;;;27.60;99.90;;;;;;5008849;28;20476;-54
2022/03/24 08:48:03;;;;;;;32.17;27.23;;;27.60;99.90;;;;;;5009300;28;20385;-55
2022/03/24 08:50:29;;;;;;;33.85;28.55;;;26.40;99.90;;;;;;4987105;28;20961;-54
2022/03/24 08:52:55;;;;;;;34.90;26.92;;;25.80;99.90;;;;;;5003210;28;20487;-54
2022/03/24 08:55:21;;;;;;;34.00;27.67;;;26.20;99.90;;;;;;5002748;28;20886;-54
2022/03/24 08:57:47;;;;;;;36.85;29.10;;;26.60;99.90;;;;;;5000665;28;20389;-54
2022/03/24 09:00:15;;;;;;;39.53;29.58;;;26.50;99.90;;;;;;4999804;28;20384;-54
2022/03/24 09:02:53;;;;;;;34.67;29.17;;;27.00;99.90;;;;;;5006619;28;20677;-54
2022/03/24 09:05:20;;;;;;;33.67;29.95;;;28.60;99.90;;;;;;5005626;28;20742;-54
2022/03/24 09:07:46;;;;;;;37.50;26.75;;;28.00;99.90;;;;;;5009819;28;20895;-54
2022/03/24 09:10:14;;;;;;;37.25;28.25;;;28.10;99.90;;;;;;5001820;28;20418;-54
2022/03/24 09:12:44;;;;;;;33.47;28.13;;;28.50;99.90;;;;;;5005231;28;20405;-54
2022/03/24 09:15:13;;;;;;;34.72;27.05;;;27.30;99.90;;;;;;5008994;28;20396;-54
2022/03/24 09:17:39;;;;;;;36.53;24.80;;;26.60;99.90;;;;;;5009002;28;20374;-54
2022/03/24 09:20:11;;;;;;;36.13;29.15;;;26.70;99.90;;;;;;5008737;28;20401;-54
2022/03/24 09:22:38;;;;;;;36.20;31.00;;;25.80;99.90;;;;;;4996645;28;20927;-54
2022/03/24 09:25:04;;;;;;;40.40;30.45;;;25.50;99.90;;;;;;5005999;28;20862;-54
2022/03/24 09:27:30;;;;;;;36.10;29.80;;;25.50;99.90;;;;;;4981527;28;20406;-54
2022/03/24 09:29:56;;;;;;;38.55;29.40;;;26.50;99.90;;;;;;5007318;28;20411;-54
2022/03/24 09:32:22;;;;;;;38.72;31.88;;;26.80;99.90;;;;;;5001809;28;20464;-55
2022/03/24 09:34:47;;;;;;;38.22;30.25;;;26.20;99.90;;;;;;5001899;28;20410;-55
2022/03/24 09:37:17;;;;;;;38.67;30.13;;;26.30;99.90;;;;;;5006099;28;20427;-55
2022/03/24 09:39:43;;;;;;;38.05;30.05;;;26.80;99.90;;;;;;5006755;28;20536;-54
2022/03/24 09:42:09;;;;;;;35.55;28.90;;;26.90;99.90;;;;;;5002750;28;20452;-54
2022/03/24 09:44:35;;;;;;;35.00;29.30;;;26.70;99.90;;;;;;5003432;28;20827;-55
2022/03/24 09:47:01;;;;;;;38.47;28.65;;;26.80;99.90;;;;;;5003907;28;20401;-55
2022/03/24 09:49:27;;;;;;;37.92;29.00;;;26.90;99.90;;;;;;5005806;28;21211;-55
2022/03/24 09:51:53;;;;;;;38.90;30.23;;;26.70;99.90;;;;;;5002113;28;20408;-54
2022/03/24 09:54:19;;;;;;;36.60;29.95;;;26.60;99.90;;;;;;5003358;28;20423;-55
2022/03/24 09:56:45;;;;;;;41.20;30.10;;;26.80;99.90;;;;;;5001474;28;20393;-54
2022/03/24 09:59:11;;;;;;;35.90;27.20;;;26.50;99.90;;;;;;5004066;28;20889;-54
2022/03/24 10:01:39;;;;;;;37.00;29.77;;;26.50;99.90;;;;;;5004768;28;20842;-54
2022/03/24 10:04:09;;;;;;;35.17;28.73;;;26.30;99.90;;;;;;5001954;28;20809;-54
2022/03/24 10:06:37;;;;;;;39.65;28.10;;;26.50;99.90;;;;;;4999144;28;20401;-54
2022/03/24 10:09:04;;;;;;;35.53;28.48;;;26.70;99.90;;;;;;4999387;28;20424;-54
2022/03/24 10:11:29;;;;;;;35.55;29.00;;;26.40;99.90;;;;;;5000864;28;20531;-54
2022/03/24 10:13:58;;;;;;;35.63;29.42;;;26.40;99.90;;;;;;5003375;28;20745;-55
2022/03/24 10:16:40;;;;;;;34.50;28.30;;;26.40;99.90;;;;;;5003486;28;20436;-55
2022/03/24 10:19:07;;;;;;;34.03;27.92;;;26.40;99.90;;;;;;5005257;28;20397;-54
2022/03/24 10:21:35;;;;;;;34.38;27.50;;;27.70;99.90;;;;;;5005399;28;20427;-54
2022/03/24 10:24:14;;;;;;;33.10;26.13;;;27.30;99.90;;;;;;5009182;28;20482;-54
2022/03/24 10:26:40;;;;;;;35.25;27.77;;;28.80;99.90;;;;;;5010107;28;20389;-54
2022/03/24 10:29:06;;;;;;;37.30;26.30;;;28.10;99.90;;;;;;5012080;28;20397;-55
2022/03/24 10:31:36;;;;;;;32.93;26.00;;;28.60;99.90;;;;;;5012199;28;20416;-55
2022/03/24 10:34:03;;;;;;;32.50;25.55;;;28.50;99.90;;;;;;5008900;28;20413;-54
2022/03/24 10:36:29;;;;;;;28.88;23.38;;;28.50;99.90;;;;;;5012048;28;20900;-54
2022/03/24 10:38:59;;;;;;;31.37;24.83;;;28.60;99.90;;;;;;5010102;28;20377;-54
2022/03/24 10:41:29;;;;;;;32.72;25.65;;;28.10;99.90;;;;;;5011501;28;20842;-55
2022/03/24 10:44:04;;;;;;;30.30;25.15;;;27.30;99.90;;;;;;5008380;28;20420;-54
2022/03/24 10:46:33;;;;;;;34.30;28.35;;;26.50;99.90;;;;;;5012180;28;20424;-54
2022/03/24 10:49:16;;;;;;;32.25;25.17;;;26.50;99.90;;;;;;5010934;28;20377;-54
2022/03/24 10:51:46;;;;;;;36.38;27.67;;;26.50;99.90;;;;;;5011477;28;20393;-54
2022/03/24 10:54:18;;;;;;;33.50;28.00;;;27.40;99.90;;;;;;5011275;28;20854;-54
2022/03/24 10:56:50;;;;;;;33.37;27.47;;;28.00;99.90;;;;;;5011578;28;20451;-54
2022/03/24 10:59:16;;;;;;;33.87;25.60;;;28.00;99.90;;;;;;5012406;28;20393;-55
2022/03/24 11:01:43;;;;;;;32.47;22.37;;;27.60;99.90;;;;;;5010891;28;20401;-54
2022/03/24 11:04:09;;;;;;;30.70;21.63;;;27.00;99.90;;;;;;5012235;28;20400;-54
2022/03/24 11:06:34;;;;;;;36.97;23.83;;;26.80;99.90;;;;;;5012059;28;20388;-54
2022/03/24 11:09:01;;;;;;;33.60;23.95;;;27.20;99.90;;;;;;5010865;28;20373;-55
2022/03/24 11:11:28;;;;;;;34.08;24.15;;;27.70;99.90;;;;;;5011903;28;20376;-55
2022/03/24 11:14:02;;;;;;;32.65;22.65;;;27.90;99.90;;;;;;5010661;28;20455;-54
2022/03/24 11:16:33;;;;;;;33.15;22.45;;;28.30;99.90;;;;;;5011775;28;20464;-55
2022/03/24 11:19:01;;;;;;;29.40;20.30;;;28.80;99.90;;;;;;5010779;28;20464;-54
2022/03/24 11:21:39;;;;;;;32.10;20.33;;;28.40;99.90;;;;;;5011382;28;20448;-55
2022/03/24 11:24:06;;;;;;;29.90;19.83;;;28.00;99.90;;;;;;5009531;28;20862;-54
2022/03/24 11:26:34;;;;;;;33.65;21.10;;;26.70;99.90;;;;;;5010800;28;20385;-55
2022/03/24 11:29:00;;;;;;;26.75;18.90;;;26.60;99.90;;;;;;5010792;28;20388;-54
2022/03/24 11:31:31;;;;;;;28.45;19.70;;;26.10;99.90;;;;;;5011659;28;20389;-55
2022/03/24 11:34:00;;;;;;;32.35;21.63;;;26.30;99.90;;;;;;5010523;28;20967;-54
2022/03/24 11:36:28;;;;;;;34.13;24.75;;;25.40;99.90;;;;;;5010978;28;20374;-54
2022/03/24 11:38:55;;;;;;;29.52;24.30;;;24.30;99.90;;;;;;5010483;28;20412;-54
2022/03/24 11:41:29;;;;;;;31.75;25.70;;;24.00;99.90;;;;;;5011081;28;20458;-54
2022/03/24 11:44:06;;;;;;;28.30;23.85;;;23.70;99.90;;;;;;5010683;28;20389;-54
2022/03/24 11:46:34;;;;;;;28.52;25.02;;;23.40;99.90;;;;;;5011319;28;20626;-54
2022/03/24 11:49:16;;;;;;;36.75;25.30;;;23.70;99.90;;;;;;5010340;28;20373;-54
2022/03/24 11:51:44;;;;;;;28.40;23.45;;;23.50;99.90;;;;;;5010773;28;20420;-54
2022/03/24 11:54:10;;;;;;;27.98;23.15;;;23.40;99.90;;;;;;5010804;28;20416;-54
2022/03/24 11:56:37;;;;;;;29.60;22.80;;;23.40;99.90;;;;;;5010477;28;20389;-54
2022/03/24 11:59:03;;;;;;;29.98;23.33;;;23.10;99.90;;;;;;5010133;28;20385;-54
2022/03/24 12:01:32;;;;;;;28.57;22.50;;;22.70;99.90;;;;;;5010898;28;20384;-55
2022/03/24 12:04:11;;;;;;;26.15;22.35;;;22.80;99.90;;;;;;5009875;28;20420;-55
2022/03/24 12:06:46;;;;;;;31.00;23.65;;;23.10;99.90;;;;;;5010987;28;20389;-54
2022/03/24 12:09:17;;;;;;;26.27;21.55;;;23.30;99.90;;;;;;5010444;28;20397;-54
2022/03/24 12:11:47;;;;;;;28.55;20.20;;;23.10;99.90;;;;;;5009950;28;20384;-53
2022/03/24 12:14:35;;;;;;;28.88;21.33;;;22.60;99.90;;;;;;5010324;28;20404;-54
2022/03/24 12:17:14;;;;;;;25.35;20.55;;;22.80;99.90;;;;;;5010086;28;20377;-54
2022/03/24 12:19:44;;;;;;;23.33;20.33;;;22.80;99.90;;;;;;5010683;28;20791;-53
2022/03/24 12:22:25;;;;;;;27.95;20.58;;;23.70;99.90;;;;;;5010619;28;20996;-55
2022/03/24 12:25:00;;;;;;;25.67;21.15;;;22.90;99.90;;;;;;5009350;28;20778;-54
2022/03/24 12:27:26;;;;;;;27.38;21.33;;;22.90;99.90;;;;;;5010247;28;20412;-55
2022/03/24 12:30:11;;;;;;;27.92;21.27;;;23.10;99.90;;;;;;5009747;28;20393;-54
2022/03/24 12:32:37;;;;;;;29.15;21.55;;;22.80;99.90;;;;;;5010576;28;20389;-54
2022/03/24 12:35:04;;;;;;;26.05;20.52;;;23.00;99.90;;;;;;5009302;28;20400;-55